Archiv-/Tagesdaten

--Timestamp---	Temp	Chill	HIndex	Humid	Dewpt	 Wind 	HiWind	WindDir	Rain 	Barom	Solar	 ET  	 UV 
--------------	----	-----	------	-----	-----	------	------	-------	-----	-----	-----	-----	----
20100309 00:00	-9.2	-9.2	-9.2	82	-11.7	5	6	90	0.0	1021.6	0	0.000	0.0
20100309 00:05	-9.2	-9.2	-9.2	83	-11.6	3	8	90	0.0	1021.5	0	0.000	0.0
20100309 00:10	-9.1	-9.1	-9.1	83	-11.5	5	10	90	0.0	1021.4	0	0.000	0.0
20100309 00:15	-9.1	-9.1	-9.1	83	-11.4	3	10	90	0.0	1021.4	0	0.000	0.0
20100309 00:20	-9.1	-9.1	-9.1	83	-11.4	5	8	68	0.0	1021.4	0	0.000	0.0
20100309 00:25	-9.1	-9.1	-9.1	83	-11.4	3	8	68	0.0	1021.3	0	0.000	0.0
20100309 00:30	-9.2	-9.2	-9.2	83	-11.5	5	8	90	0.0	1021.3	0	0.000	0.0
20100309 00:35	-9.2	-9.2	-9.2	83	-11.6	3	6	90	0.0	1021.2	0	0.000	0.0
20100309 00:40	-9.2	-9.2	-9.2	83	-11.6	3	8	90	0.0	1021.2	0	0.000	0.0
20100309 00:45	-9.2	-9.2	-9.2	83	-11.6	5	8	68	0.0	1021.2	0	0.000	0.0
20100309 00:50	-9.3	-9.3	-9.3	83	-11.6	3	6	90	0.0	1021.2	0	0.000	0.0
20100309 00:55	-9.4	-9.4	-9.4	83	-11.7	5	8	90	0.0	1021.1	0	0.000	0.0
20100309 01:00	-9.4	-9.4	-9.4	83	-11.8	5	6	90	0.0	1021.1	0	0.000	0.0
20100309 01:05	-9.5	-9.5	-9.5	83	-11.8	3	6	90	0.0	1020.8	0	0.000	0.0
20100309 01:10	-9.6	-9.6	-9.6	83	-11.9	3	8	90	0.0	1020.9	0	0.000	0.0
20100309 01:15	-9.7	-9.7	-9.7	83	-12.0	3	8	90	0.0	1020.8	0	0.000	0.0
20100309 01:20	-9.7	-9.7	-9.7	83	-12.0	3	6	68	0.0	1020.8	0	0.000	0.0
20100309 01:25	-9.7	-9.7	-9.7	83	-12.1	5	6	68	0.0	1020.7	0	0.000	0.0
20100309 01:30	-9.8	-9.8	-9.8	83	-12.1	5	10	68	0.0	1020.9	0	0.000	0.0
20100309 01:35	-9.8	-14.3	-9.8	83	-12.2	8	11	68	0.0	1020.8	0	0.000	0.0
20100309 01:40	-9.9	-14.4	-9.9	83	-12.3	8	11	68	0.0	1020.8	0	0.000	0.0
20100309 01:45	-10.0	-13.7	-10.0	83	-12.3	6	11	68	0.0	1020.8	0	0.000	0.0
20100309 01:50	-10.1	-14.5	-10.1	83	-12.4	8	11	68	0.0	1020.7	0	0.000	0.0
20100309 01:55	-10.0	-13.7	-10.0	83	-12.3	6	11	68	0.0	1020.7	0	0.000	0.0
20100309 02:00	-9.9	-9.9	-9.9	82	-12.4	3	8	90	0.0	1020.8	0	0.000	0.0
20100309 02:05	-9.9	-9.9	-9.9	82	-12.4	5	11	90	0.0	1020.5	0	0.000	0.0
20100309 02:10	-9.9	-9.9	-9.9	82	-12.4	3	8	68	0.0	1020.5	0	0.000	0.0
20100309 02:15	-10.0	-10.0	-10.0	82	-12.5	5	10	90	0.0	1020.5	0	0.000	0.0
20100309 02:20	-10.0	-13.7	-10.0	82	-12.5	6	11	68	0.0	1020.5	0	0.000	0.0
20100309 02:25	-10.1	-10.1	-10.1	82	-12.5	5	10	68	0.0	1020.4	0	0.000	0.0
20100309 02:30	-10.1	-10.1	-10.1	82	-12.5	5	8	68	0.0	1020.4	0	0.000	0.0
20100309 02:35	-10.0	-10.0	-10.0	82	-12.5	5	10	68	0.0	1020.4	0	0.000	0.0
20100309 02:40	-10.1	-10.1	-10.1	82	-12.5	5	10	68	0.0	1020.3	0	0.000	0.0
20100309 02:45	-10.1	-10.1	-10.1	81	-12.7	5	8	90	0.0	1020.3	0	0.000	0.0
20100309 02:50	-10.2	-10.2	-10.2	81	-12.8	5	10	68	0.0	1020.3	0	0.000	0.0
20100309 02:55	-10.2	-10.2	-10.2	81	-12.8	5	11	68	0.0	1020.3	0	0.000	0.0
20100309 03:00	-10.2	-10.2	-10.2	81	-12.8	5	11	90	0.0	1020.3	0	0.000	0.0
20100309 03:05	-10.2	-13.9	-10.2	81	-12.8	6	10	90	0.0	1020.4	0	0.000	0.0
20100309 03:10	-10.2	-10.2	-10.2	81	-12.8	5	10	68	0.0	1020.4	0	0.000	0.0
20100309 03:15	-10.2	-10.2	-10.2	81	-12.8	5	10	68	0.0	1020.4	0	0.000	0.0
20100309 03:20	-10.2	-14.0	-10.2	81	-12.8	6	11	68	0.0	1020.4	0	0.000	0.0
20100309 03:25	-10.3	-10.3	-10.3	82	-12.8	5	11	68	0.0	1020.3	0	0.000	0.0
20100309 03:30	-10.3	-10.3	-10.3	82	-12.8	5	10	68	0.0	1020.3	0	0.000	0.0
20100309 03:35	-10.3	-10.3	-10.3	82	-12.8	5	11	68	0.0	1020.4	0	0.000	0.0
20100309 03:40	-10.3	-10.3	-10.3	82	-12.8	5	11	68	0.0	1020.4	0	0.000	0.0
20100309 03:45	-10.4	-10.4	-10.4	82	-12.9	3	6	68	0.0	1020.3	0	0.000	0.0
20100309 03:50	-10.6	-10.6	-10.6	82	-13.0	3	6	68	0.0	1020.4	0	0.000	0.0
20100309 03:55	-10.6	-10.6	-10.6	82	-13.1	5	10	90	0.0	1020.4	0	0.000	0.0
20100309 04:00	-10.7	-10.7	-10.7	82	-13.1	5	11	90	0.0	1020.3	0	0.000	0.0
20100309 04:05	-10.7	-10.7	-10.7	82	-13.1	5	10	68	0.0	1020.3	0	0.000	0.0
20100309 04:10	-10.7	-14.6	-10.7	82	-13.2	6	10	68	0.0	1020.3	0	0.000	0.0
20100309 04:15	-10.7	-10.7	-10.7	82	-13.2	5	11	68	0.0	1020.2	0	0.000	0.0
20100309 04:20	-10.8	-10.8	-10.8	83	-13.1	5	10	68	0.0	1020.2	0	0.000	0.0
20100309 04:25	-10.7	-10.7	-10.7	83	-13.0	5	11	68	0.0	1020.3	0	0.000	0.0
20100309 04:30	-10.8	-10.8	-10.8	82	-13.2	5	11	68	0.0	1020.2	0	0.000	0.0
20100309 04:35	-10.9	-14.8	-10.9	82	-13.3	6	10	68	0.0	1020.3	0	0.000	0.0
20100309 04:40	-11.0	-14.9	-11.0	83	-13.3	6	11	68	0.0	1020.3	0	0.000	0.0
20100309 04:45	-10.9	-14.8	-10.9	83	-13.3	6	11	68	0.0	1020.1	0	0.000	0.0
20100309 04:50	-11.0	-15.7	-11.0	83	-13.3	8	14	68	0.0	1020.1	0	0.000	0.0
20100309 04:55	-10.9	-15.6	-10.9	83	-13.3	8	14	68	0.0	1020.2	0	0.000	0.0
20100309 05:00	-10.8	-15.4	-10.8	83	-13.1	8	16	68	0.0	1020.0	0	0.000	0.0
20100309 05:05	-10.7	-14.5	-10.7	83	-13.0	6	11	68	0.0	1020.2	0	0.000	0.0
20100309 05:10	-10.7	-14.5	-10.7	83	-13.0	6	13	68	0.0	1020.1	0	0.000	0.0
20100309 05:15	-10.6	-14.4	-10.6	83	-12.9	6	14	68	0.0	1020.1	0	0.000	0.0
20100309 05:20	-10.5	-15.1	-10.5	83	-12.8	8	16	90	0.0	1020.1	0	0.000	0.0
20100309 05:25	-10.5	-14.3	-10.5	83	-12.8	6	11	90	0.0	1020.2	0	0.000	0.0
20100309 05:30	-10.5	-15.1	-10.5	83	-12.8	8	16	90	0.0	1020.2	0	0.000	0.0
20100309 05:35	-10.5	-14.3	-10.5	83	-12.8	6	11	90	0.0	1020.2	0	0.000	0.0
20100309 05:40	-10.6	-10.6	-10.6	83	-12.9	5	8	90	0.0	1020.3	0	0.000	0.0
20100309 05:45	-10.6	-10.6	-10.6	83	-12.9	5	10	90	0.0	1020.2	0	0.000	0.0
20100309 05:50	-10.7	-10.7	-10.7	82	-13.1	5	11	90	0.0	1020.3	0	0.000	0.0
20100309 05:55	-10.7	-10.7	-10.7	83	-13.0	5	10	90	0.0	1020.3	0	0.000	0.0
20100309 06:00	-10.7	-10.7	-10.7	83	-13.0	3	10	90	0.0	1020.3	0	0.000	0.0
20100309 06:05	-10.7	-10.7	-10.7	83	-13.0	5	11	90	0.0	1020.5	0	0.000	0.0
20100309 06:10	-10.7	-10.7	-10.7	83	-13.0	5	8	90	0.0	1020.6	0	0.000	0.0
20100309 06:15	-10.7	-10.7	-10.7	83	-13.0	5	8	68	0.0	1020.6	0	0.000	0.0
20100309 06:20	-10.7	-10.7	-10.7	83	-13.0	3	8	90	0.0	1020.6	0	0.000	0.0
20100309 06:25	-10.7	-10.7	-10.7	83	-13.0	3	8	90	0.0	1020.6	0	0.000	0.0
20100309 06:30	-10.7	-10.7	-10.7	83	-13.0	3	8	68	0.0	1020.7	0	0.000	0.0
20100309 06:35	-10.6	-10.6	-10.6	83	-12.9	3	8	68	0.0	1020.7	0	0.000	0.0
20100309 06:40	-10.5	-10.5	-10.5	83	-12.8	3	6	90	0.0	1020.8	0	0.000	0.0
20100309 06:45	-10.4	-10.4	-10.4	83	-12.8	5	6	68	0.0	1020.8	0	0.000	0.0
20100309 06:50	-10.4	-10.4	-10.4	83	-12.7	5	8	68	0.0	1020.8	4	0.000	0.0
20100309 06:55	-10.3	-10.3	-10.3	83	-12.6	5	11	68	0.0	1020.9	7	0.000	0.0
20100309 07:00	-10.2	-13.9	-10.2	92	-11.2	6	14	68	0.0	1020.8	10	0.000	0.0
20100309 07:05	-10.1	-14.5	-10.1	83	-12.4	8	18	68	0.0	1021.0	12	0.000	0.0
20100309 07:10	-9.9	-14.4	-9.9	83	-12.2	8	16	68	0.0	1021.0	14	0.000	0.0
20100309 07:15	-9.8	-14.8	-9.8	83	-12.1	10	16	68	0.0	1021.0	19	0.000	0.0
20100309 07:20	-9.7	-15.3	-9.7	82	-12.2	11	19	68	0.0	1020.9	23	0.000	0.0
20100309 07:25	-9.5	-16.0	-9.5	82	-12.0	14	21	68	0.0	1020.9	29	0.000	0.0
20100309 07:30	-9.4	-15.0	-9.4	82	-11.9	11	21	68	0.0	1020.9	33	0.000	0.0
20100309 07:35	-9.3	-14.9	-9.3	82	-11.8	11	19	68	0.0	1020.9	37	0.000	0.0
20100309 07:40	-9.2	-14.2	-9.2	82	-11.7	10	18	68	0.0	1021.0	41	0.000	0.0
20100309 07:45	-9.1	-14.5	-9.1	82	-11.6	11	18	68	0.0	1021.0	49	0.000	0.0
20100309 07:50	-8.9	-14.3	-8.9	82	-11.4	11	19	68	0.0	1021.0	56	0.000	0.0
20100309 07:55	-8.8	-14.7	-8.8	81	-11.4	13	21	68	0.0	1021.1	61	0.000	0.0
20100309 08:00	-8.7	-14.1	-8.7	81	-11.3	11	21	68	0.0	1021.1	69	0.025	0.0
20100309 08:05	-8.6	-14.4	-8.6	81	-11.2	13	27	68	0.0	1021.0	81	0.000	0.0
20100309 08:10	-8.5	-13.9	-8.5	80	-11.3	11	21	90	0.0	1021.0	86	0.000	0.0
20100309 08:15	-8.4	-13.2	-8.4	80	-11.2	10	19	90	0.0	1021.0	96	0.000	0.0
20100309 08:20	-8.3	-12.5	-8.3	80	-11.2	8	18	90	0.0	1021.1	106	0.000	0.0
20100309 08:25	-8.3	-12.5	-8.3	80	-11.1	8	19	90	0.0	1021.1	108	0.000	0.0
20100309 08:30	-8.2	-13.0	-8.2	80	-11.0	10	19	90	0.0	1021.1	122	0.000	0.0
20100309 08:35	-8.2	-13.5	-8.2	80	-11.0	11	24	90	0.0	1021.2	126	0.000	0.0
20100309 08:40	-8.2	-13.5	-8.2	80	-11.0	11	21	90	0.0	1021.2	132	0.000	0.0
20100309 08:45	-8.1	-12.8	-8.1	80	-10.9	10	23	90	0.0	1021.2	141	0.000	0.0
20100309 08:50	-7.9	-12.7	-7.9	80	-10.8	10	19	90	0.0	1021.2	145	0.000	0.1
20100309 08:55	-7.8	-11.9	-7.8	80	-10.7	8	21	90	0.0	1021.2	161	0.000	0.5
20100309 09:00	-7.8	-12.5	-7.8	79	-10.8	10	23	112	0.0	1021.2	162	0.025	0.5
20100309 09:05	-7.8	-12.5	-7.8	79	-10.8	10	19	90	0.0	1021.2	162	0.000	0.5
20100309 09:10	-7.8	-12.5	-7.8	79	-10.8	10	21	90	0.0	1021.2	190	0.000	0.6
20100309 09:15	-7.7	-12.9	-7.7	79	-10.7	11	21	90	0.0	1021.2	186	0.000	0.6
20100309 09:20	-7.6	-12.7	-7.6	79	-10.6	11	23	112	0.0	1021.3	207	0.000	0.7
20100309 09:25	-7.4	-12.6	-7.4	78	-10.6	11	19	90	0.0	1021.3	214	0.000	0.7
20100309 09:30	-7.3	-12.9	-7.3	78	-10.5	13	21	112	0.0	1021.4	232	0.000	0.7
20100309 09:35	-7.2	-12.3	-7.2	77	-10.6	11	21	90	0.0	1021.4	226	0.000	0.8
20100309 09:40	-7.2	-11.7	-7.2	77	-10.5	10	21	112	0.0	1021.4	232	0.000	0.8
20100309 09:45	-7.1	-12.1	-7.1	77	-10.4	11	24	112	0.0	1021.4	210	0.000	0.9
20100309 09:50	-6.9	-12.0	-6.9	77	-10.3	11	21	90	0.0	1021.4	176	0.000	0.9
20100309 09:55	-6.8	-11.8	-6.8	76	-10.3	11	24	112	0.0	1021.2	156	0.000	1.0
20100309 10:00	-6.8	-11.3	-6.8	76	-10.3	10	23	90	0.0	1021.2	154	0.051	1.0
20100309 10:05	-6.7	-11.2	-6.7	76	-10.2	10	21	90	0.0	1021.3	154	0.000	1.0
20100309 10:10	-6.5	-10.4	-6.5	76	-10.0	8	19	90	0.0	1021.3	153	0.000	1.1
20100309 10:15	-6.3	-11.2	-6.3	74	-10.2	11	21	90	0.0	1021.3	149	0.000	1.1
20100309 10:20	-6.2	-10.6	-6.2	74	-10.1	10	23	90	0.0	1021.3	142	0.000	1.2
20100309 10:25	-5.9	-10.7	-5.9	74	-9.8	11	21	90	0.0	1021.3	144	0.000	1.2
20100309 10:30	-5.7	-10.4	-5.7	73	-9.7	11	24	90	0.0	1021.1	152	0.000	1.2
20100309 10:35	-5.5	-9.8	-5.5	72	-9.7	10	24	90	0.0	1021.2	153	0.000	1.3
20100309 10:40	-5.3	-10.9	-5.3	71	-9.8	14	27	90	0.0	1021.2	166	0.000	1.3
20100309 10:45	-5.1	-10.2	-5.1	71	-9.5	13	24	90	0.0	1021.1	486	0.000	1.3
20100309 10:50	-4.9	-10.7	-4.9	70	-9.6	16	27	112	0.0	1021.1	447	0.000	1.5
20100309 10:55	-4.7	-9.7	-4.7	70	-9.3	13	23	135	0.0	1021.1	472	0.000	1.5
20100309 11:00	-4.6	-9.6	-4.6	69	-9.4	13	27	90	0.0	1021.0	407	0.076	1.5
20100309 11:05	-4.5	-9.8	-4.5	68	-9.5	14	26	90	0.0	1021.0	453	0.000	1.6
20100309 11:10	-4.3	-9.6	-4.3	69	-9.2	14	31	90	0.0	1021.1	516	0.000	1.8
20100309 11:15	-4.2	-9.5	-4.2	68	-9.2	14	24	90	0.0	1021.1	551	0.000	1.8
20100309 11:20	-4.2	-9.4	-4.2	67	-9.4	14	26	90	0.0	1020.9	457	0.000	1.8
20100309 11:25	-4.1	-10.2	-4.1	65	-9.6	19	32	90	0.0	1020.9	511	0.000	1.9
20100309 11:30	-3.9	-9.5	-3.9	66	-9.3	16	34	90	0.0	1020.9	532	0.000	1.9
20100309 11:35	-3.9	-9.5	-3.9	66	-9.3	16	32	90	0.0	1020.9	547	0.000	1.9
20100309 11:40	-3.9	-9.7	-3.9	65	-9.5	18	34	90	0.0	1020.8	582	0.000	2.0
20100309 11:45	-3.7	-9.8	-3.7	64	-9.5	19	40	90	0.0	1020.8	640	0.000	2.2
20100309 11:50	-3.6	-9.6	-3.6	65	-9.2	19	31	90	0.0	1020.8	639	0.000	2.2
20100309 11:55	-3.4	-9.2	-3.4	64	-9.3	18	34	90	0.0	1020.9	648	0.000	2.2
20100309 12:00	-3.6	-9.9	-3.6	64	-9.4	21	34	90	0.0	1020.8	636	0.178	2.2
20100309 12:05	-3.4	-9.2	-3.4	63	-9.5	18	31	90	0.0	1020.8	512	0.000	2.1
20100309 12:10	-3.3	-8.7	-3.3	63	-9.3	16	35	90	0.0	1020.7	542	0.000	2.1
20100309 12:15	-3.1	-8.8	-3.1	62	-9.3	18	31	90	0.0	1020.7	603	0.000	2.2
20100309 12:20	-3.1	-8.4	-3.1	63	-9.1	16	34	90	0.0	1020.6	605	0.000	2.2
20100309 12:25	-2.9	-8.8	-2.9	62	-9.2	19	35	90	0.0	1020.5	588	0.000	2.2
20100309 12:30	-3.1	-8.7	-3.1	63	-9.1	18	42	90	0.0	1020.5	458	0.000	2.1
20100309 12:35	-3.2	-9.2	-3.2	63	-9.3	19	43	90	0.0	1020.6	497	0.000	2.1
20100309 12:40	-3.0	-8.3	-3.0	62	-9.2	16	32	90	0.0	1020.5	639	0.000	2.2
20100309 12:45	-2.8	-8.1	-2.8	60	-9.5	16	32	90	0.0	1020.4	592	0.000	2.2
20100309 12:50	-2.8	-8.7	-2.8	61	-9.3	19	35	90	0.0	1020.4	558	0.000	2.2
20100309 12:55	-2.7	-8.7	-2.7	60	-9.3	21	40	90	0.0	1020.3	549	0.000	2.1
20100309 13:00	-2.7	-7.9	-2.7	59	-9.6	16	32	90	0.0	1020.3	463	0.203	2.0
20100309 13:05	-2.7	-7.6	-2.7	60	-9.4	14	34	90	0.0	1020.4	449	0.000	1.9
20100309 13:10	-2.8	-7.8	-2.8	60	-9.5	14	26	90	0.0	1020.4	524	0.000	2.1
20100309 13:15	-2.9	-8.8	-2.9	60	-9.6	19	35	68	0.0	1020.4	479	0.000	1.9
20100309 13:20	-2.9	-7.9	-2.9	61	-9.3	14	26	68	0.0	1020.3	519	0.000	2.0
20100309 13:25	-2.7	-7.2	-2.7	60	-9.3	13	31	90	0.0	1020.3	527	0.000	2.0
20100309 13:30	-2.6	-7.8	-2.6	59	-9.5	16	31	90	0.0	1020.3	581	0.000	2.0
20100309 13:35	-2.4	-8.5	-2.4	58	-9.6	21	39	90	0.0	1020.2	603	0.000	2.1
20100309 13:40	-2.5	-8.3	-2.5	58	-9.6	19	43	90	0.0	1020.3	580	0.000	2.0
20100309 13:45	-2.3	-8.0	-2.3	57	-9.6	19	40	112	0.0	1020.3	549	0.000	1.9
20100309 13:50	-2.4	-8.4	-2.4	55	-10.2	21	39	90	0.0	1020.3	544	0.000	1.9
20100309 13:55	-2.3	-6.7	-2.3	58	-9.4	13	27	90	0.0	1020.3	534	0.000	1.9
20100309 14:00	-2.3	-7.5	-2.3	57	-9.7	16	35	90	0.0	1020.2	527	0.203	1.8
20100309 14:05	-2.2	-7.6	-2.2	57	-9.6	18	32	90	0.0	1020.3	523	0.000	1.8
20100309 14:10	-2.3	-6.4	-2.3	57	-9.6	11	27	90	0.0	1020.2	509	0.000	1.7
20100309 14:15	-2.2	-7.6	-2.2	56	-9.8	18	35	68	0.0	1020.3	497	0.000	1.7
20100309 14:20	-2.3	-7.4	-2.3	56	-9.9	16	27	68	0.0	1020.3	496	0.000	1.6
20100309 14:25	-2.2	-7.9	-2.2	55	-10.0	19	35	90	0.0	1020.3	471	0.000	1.6
20100309 14:30	-2.2	-7.3	-2.2	55	-10.0	16	39	68	0.0	1020.3	473	0.000	1.5
20100309 14:35	-2.1	-6.5	-2.1	55	-9.9	13	26	90	0.0	1020.4	470	0.000	1.5
20100309 14:40	-1.9	-7.0	-1.9	55	-9.8	16	27	90	0.0	1020.4	468	0.000	1.4
20100309 14:45	-1.9	-6.6	-1.9	53	-10.2	14	31	90	0.0	1020.4	458	0.000	1.4
20100309 14:50	-1.9	-7.3	-1.9	55	-9.8	18	31	90	0.0	1020.4	441	0.000	1.3
20100309 14:55	-1.8	-6.1	-1.8	54	-9.8	13	31	90	0.0	1020.4	428	0.000	1.3
20100309 15:00	-1.8	-7.2	-1.8	53	-10.1	18	34	90	0.0	1020.3	366	0.178	1.2
20100309 15:05	-1.8	-7.2	-1.8	53	-10.1	18	31	90	0.0	1020.3	336	0.000	1.1
20100309 15:10	-1.7	-6.4	-1.7	53	-10.0	14	32	112	0.0	1020.3	370	0.000	1.1
20100309 15:15	-1.6	-6.3	-1.6	53	-9.9	14	26	90	0.0	1020.3	399	0.000	1.1
20100309 15:20	-1.6	-7.1	-1.6	51	-10.4	19	35	112	0.0	1020.3	395	0.000	1.1
20100309 15:25	-1.6	-6.5	-1.6	52	-10.1	16	32	112	0.0	1020.3	373	0.000	1.0
20100309 15:30	-1.6	-6.5	-1.6	50	-10.6	16	39	90	0.0	1020.2	322	0.000	0.9
20100309 15:35	-1.7	-6.4	-1.7	51	-10.5	14	27	90	0.0	1020.4	298	0.000	0.9
20100309 15:40	-1.8	-7.7	-1.8	53	-10.1	21	37	112	0.0	1020.2	322	0.000	0.8
20100309 15:45	-1.8	-6.6	-1.8	54	-9.9	14	27	90	0.0	1020.3	324	0.000	0.8
20100309 15:50	-1.8	-6.8	-1.8	51	-10.6	16	32	90	0.0	1020.3	289	0.000	0.7
20100309 15:55	-1.8	-7.4	-1.8	51	-10.6	19	50	90	0.0	1020.3	250	0.000	0.7
20100309 16:00	-1.9	-8.1	-1.9	51	-10.7	23	42	90	0.0	1020.1	247	0.152	0.6
20100309 16:05	-2.0	-7.6	-2.0	51	-10.8	19	31	90	0.0	1020.2	201	0.000	0.6
20100309 16:10	-2.0	-7.1	-2.0	52	-10.5	16	31	90	0.0	1020.4	214	0.000	0.5
20100309 16:15	-1.9	-7.2	-1.9	52	-10.4	18	32	90	0.0	1020.3	252	0.000	0.5
20100309 16:20	-1.9	-7.2	-1.9	52	-10.4	18	35	90	0.0	1020.2	240	0.000	0.5
20100309 16:25	-1.9	-7.5	-1.9	51	-10.7	19	37	90	0.0	1020.1	-100000	0.000	0.1
20100309 16:30	-1.9	-7.2	-1.9	51	-10.7	18	31	90	0.0	1020.2	203	0.000	0.0
20100309 16:35	-1.9	-7.6	-1.9	51	-10.7	19	35	90	0.0	1020.2	195	0.000	0.0
20100309 16:40	-1.9	-7.0	-1.9	51	-10.7	16	29	90	0.0	1020.3	169	0.000	0.0
20100309 16:45	-2.0	-7.6	-2.0	50	-11.0	19	32	90	0.0	1020.4	147	0.000	0.0
20100309 16:50	-2.1	-7.4	-2.1	50	-11.1	18	32	90	0.0	1020.5	123	0.000	0.0
20100309 16:55	-2.2	-7.3	-2.2	51	-10.9	16	27	90	0.0	1020.5	100	0.000	0.0
20100309 17:00	-2.2	-7.0	-2.2	51	-11.0	14	27	90	0.0	1020.7	91	0.102	0.0
20100309 17:05	-2.3	-6.4	-2.3	52	-10.8	11	26	90	0.0	1020.6	81	0.000	0.0
20100309 17:10	-2.3	-6.8	-2.3	53	-10.6	13	29	90	0.0	1020.6	68	0.000	0.0
20100309 17:15	-2.3	-8.1	-2.3	52	-10.8	19	32	90	0.0	1020.8	55	0.000	0.0
20100309 17:20	-2.4	-6.6	-2.4	53	-10.7	11	23	90	0.0	1020.8	47	0.000	0.0
20100309 17:25	-2.5	-6.2	-2.5	53	-10.8	10	23	90	0.0	1020.8	42	0.000	0.0
20100309 17:30	-2.6	-7.5	-2.6	53	-10.9	14	24	90	0.0	1020.8	37	0.000	0.0
20100309 17:35	-2.6	-6.8	-2.6	55	-10.4	11	23	90	0.0	1020.9	32	0.000	0.0
20100309 17:40	-2.6	-7.5	-2.6	54	-10.6	14	26	90	0.0	1020.9	28	0.000	0.0
20100309 17:45	-2.7	-7.6	-2.7	54	-10.7	14	29	90	0.0	1021.0	22	0.000	0.0
20100309 17:50	-2.7	-8.5	-2.7	54	-10.7	19	32	68	0.0	1021.0	18	0.000	0.0
20100309 17:55	-2.8	-7.4	-2.8	55	-10.6	13	23	68	0.0	1021.0	12	0.000	0.0
20100309 18:00	-2.9	-7.9	-2.9	55	-10.7	14	26	90	0.0	1021.1	8	0.051	0.0
20100309 18:05	-3.0	-7.2	-3.0	56	-10.5	11	21	68	0.0	1021.2	3	0.000	0.0
20100309 18:10	-3.2	-7.0	-3.2	56	-10.7	10	19	68	0.0	1021.1	0	0.000	0.0
20100309 18:15	-3.2	-7.0	-3.2	56	-10.7	10	19	90	0.0	1021.4	0	0.000	0.0
20100309 18:20	-3.2	-7.0	-3.2	56	-10.7	10	19	68	0.0	1021.3	0	0.000	0.0
20100309 18:25	-3.3	-7.6	-3.3	56	-10.8	11	21	68	0.0	1021.3	0	0.000	0.0
20100309 18:30	-3.3	-8.0	-3.3	56	-10.8	13	27	68	0.0	1021.3	0	0.000	0.0
20100309 18:35	-3.3	-7.2	-3.3	56	-10.8	10	21	68	0.0	1021.3	0	0.000	0.0
20100309 18:40	-3.4	-8.1	-3.4	55	-11.1	13	24	68	0.0	1021.4	0	0.000	0.0
20100309 18:45	-3.4	-7.8	-3.4	56	-10.9	11	26	68	0.0	1021.5	0	0.000	0.0
20100309 18:50	-3.4	-8.5	-3.4	54	-11.4	14	31	68	0.0	1021.5	0	0.000	0.0
20100309 18:55	-3.4	-7.3	-3.4	55	-11.2	10	21	90	0.0	1021.6	0	0.000	0.0
20100309 19:00	-3.4	-7.8	-3.4	54	-11.4	11	27	90	0.0	1021.7	0	0.025	0.0
20100309 19:05	-3.4	-7.8	-3.4	53	-11.6	11	23	90	0.0	1021.7	0	0.000	0.0
20100309 19:10	-3.4	-7.8	-3.4	53	-11.6	11	21	90	0.0	1021.7	0	0.000	0.0
20100309 19:15	-3.4	-7.3	-3.4	53	-11.6	10	21	90	0.0	1021.7	0	0.000	0.0
20100309 19:20	-3.5	-7.8	-3.5	52	-11.9	11	27	90	0.0	1021.6	0	0.000	0.0
20100309 19:25	-3.5	-8.6	-3.5	53	-11.7	14	26	68	0.0	1021.5	0	0.000	0.0
20100309 19:30	-3.6	-8.4	-3.6	54	-11.6	13	23	68	0.0	1021.6	0	0.000	0.0
20100309 19:35	-3.7	-8.0	-3.7	54	-11.6	11	23	68	0.0	1021.7	0	0.000	0.0
20100309 19:40	-3.7	-8.4	-3.7	54	-11.6	13	31	68	0.0	1021.8	0	0.000	0.0
20100309 19:45	-3.6	-8.0	-3.6	53	-11.8	11	24	68	0.0	1021.8	0	0.000	0.0
20100309 19:50	-3.7	-8.8	-3.7	54	-11.6	14	31	68	0.0	1021.8	0	0.000	0.0
20100309 19:55	-3.7	-8.4	-3.7	54	-11.6	13	26	90	0.0	1021.8	0	0.000	0.0
20100309 20:00	-3.7	-8.5	-3.7	54	-11.7	13	24	68	0.0	1021.8	0	0.051	0.0
20100309 20:05	-3.7	-9.2	-3.7	54	-11.7	16	29	68	0.0	1021.7	0	0.000	0.0
20100309 20:10	-3.7	-9.2	-3.7	54	-11.7	16	27	90	0.0	1021.6	0	0.000	0.0
20100309 20:15	-3.7	-9.2	-3.7	54	-11.7	16	31	68	0.0	1021.6	0	0.000	0.0
20100309 20:20	-3.7	-9.5	-3.7	54	-11.7	18	32	68	0.0	1021.5	0	0.000	0.0
20100309 20:25	-3.7	-9.2	-3.7	54	-11.7	16	29	90	0.0	1021.5	0	0.000	0.0
20100309 20:30	-3.7	-9.5	-3.7	53	-11.9	18	29	68	0.0	1021.4	0	0.000	0.0
20100309 20:35	-3.7	-9.2	-3.7	54	-11.7	16	32	68	0.0	1021.4	0	0.000	0.0
20100309 20:40	-3.8	-8.9	-3.8	54	-11.7	14	26	90	0.0	1021.3	0	0.000	0.0
20100309 20:45	-3.8	-10.4	-3.8	54	-11.7	23	35	68	0.0	1021.2	0	0.000	0.0
20100309 20:50	-3.8	-9.3	-3.8	55	-11.5	16	37	68	0.0	1021.3	0	0.000	0.0
20100309 20:55	-3.8	-9.6	-3.8	54	-11.7	18	34	90	0.0	1021.4	0	0.000	0.0
20100309 21:00	-3.8	-9.0	-3.8	53	-12.0	14	34	90	0.0	1021.4	0	0.051	0.0
20100309 21:05	-3.8	-9.7	-3.8	54	-11.8	18	31	90	0.0	1021.2	0	0.000	0.0
20100309 21:10	-3.8	-9.9	-3.8	53	-12.0	19	35	90	0.0	1021.3	0	0.000	0.0
20100309 21:15	-3.9	-9.7	-3.9	54	-11.8	18	29	90	0.0	1021.1	0	0.000	0.0
20100309 21:20	-3.9	-9.8	-3.9	54	-11.9	18	34	90	0.0	1021.1	0	0.000	0.0
20100309 21:25	-4.0	-9.2	-4.0	54	-11.9	14	29	90	0.0	1021.1	0	0.000	0.0
20100309 21:30	-4.0	-9.9	-4.0	54	-11.9	18	32	90	0.0	1021.1	0	0.000	0.0
20100309 21:35	-4.0	-9.6	-4.0	54	-11.9	16	37	90	0.0	1021.2	0	0.000	0.0
20100309 21:40	-4.0	-9.9	-4.0	54	-11.9	18	31	90	0.0	1021.3	0	0.000	0.0
20100309 21:45	-4.1	-10.2	-4.1	55	-11.7	19	34	90	0.0	1021.2	0	0.000	0.0
20100309 21:50	-4.1	-9.6	-4.1	54	-12.0	16	27	90	0.0	1021.2	0	0.000	0.0
20100309 21:55	-4.1	-10.2	-4.1	54	-12.0	19	29	90	0.0	1021.2	0	0.000	0.0
20100309 22:00	-4.1	-10.2	-4.1	54	-12.0	19	32	90	0.0	1021.3	0	0.051	0.0
20100309 22:05	-4.1	-9.9	-4.1	54	-12.0	18	37	90	0.0	1021.0	0	0.000	0.0
20100309 22:10	-4.1	-10.3	-4.1	53	-12.3	19	39	90	0.0	1021.0	0	0.000	0.0
20100309 22:15	-4.2	-10.1	-4.2	54	-12.1	18	37	90	0.0	1020.9	0	0.000	0.0
20100309 22:20	-4.2	-10.6	-4.2	53	-12.3	21	39	90	0.0	1020.8	0	0.000	0.0
20100309 22:25	-4.2	-10.6	-4.2	53	-12.3	21	42	90	0.0	1020.8	0	0.000	0.0
20100309 22:30	-4.2	-10.1	-4.2	53	-12.3	18	34	90	0.0	1020.8	0	0.000	0.0
20100309 22:35	-4.2	-10.6	-4.2	53	-12.3	21	43	90	0.0	1020.8	0	0.000	0.0
20100309 22:40	-4.2	-10.6	-4.2	53	-12.3	21	35	90	0.0	1020.7	0	0.000	0.0
20100309 22:45	-4.2	-10.4	-4.2	53	-12.4	19	43	90	0.0	1020.7	0	0.000	0.0
20100309 22:50	-4.3	-10.0	-4.3	54	-12.2	16	29	90	0.0	1020.7	0	0.000	0.0
20100309 22:55	-4.3	-10.3	-4.3	54	-12.2	18	40	90	0.0	1020.6	0	0.000	0.0
20100309 23:00	-4.3	-10.6	-4.3	54	-12.2	19	39	90	0.0	1020.6	0	0.051	0.0
20100309 23:05	-4.4	-10.3	-4.4	54	-12.3	18	37	90	0.0	1020.3	0	0.000	0.0
20100309 23:10	-4.4	-10.6	-4.4	54	-12.3	19	48	90	0.0	1020.2	0	0.000	0.0
20100309 23:15	-4.4	-10.7	-4.4	54	-12.3	19	34	90	0.0	1020.1	0	0.000	0.0
20100309 23:20	-4.4	-11.2	-4.4	54	-12.3	23	45	90	0.0	1020.1	0	0.000	0.0
20100309 23:25	-4.4	-11.0	-4.4	54	-12.3	21	35	90	0.0	1019.9	0	0.000	0.0
20100309 23:30	-4.5	-10.5	-4.5	54	-12.4	18	32	90	0.0	1019.9	0	0.000	0.0
20100309 23:35	-4.5	-11.1	-4.5	54	-12.4	21	42	112	0.0	1019.8	0	0.000	0.0
20100309 23:40	-4.6	-10.6	-4.6	55	-12.2	18	32	90	0.0	1019.9	0	0.000	0.0
20100309 23:45	-4.6	-10.9	-4.6	55	-12.2	19	34	90	0.0	1019.7	0	0.000	0.0
20100309 23:50	-4.6	-10.6	-4.6	55	-12.3	18	37	90	0.0	1019.7	0	0.000	0.0
20100309 23:55	-4.7	-10.7	-4.7	56	-12.1	18	34	90	0.0	1019.6	0	0.000	0.0



Please note the license to use and transfer of this data:
http://creativecommons.org/licenses/by-nc-sa/3.0/deed.en

Bitte beachten sie die Lizenz zur Verwertung und Weitergabe der Daten:
http://creativecommons.org/licenses/by-nc-sa/3.0/deed.de

zurück zur Übersicht der Archivdaten (Monats und Tagesdaten)

Cookies helfen bei der Bereitstellung von Inhalten. Durch die Nutzung dieser Seiten erklärst du dich damit einverstanden, dass Cookies auf deinem Rechner gespeichert werden. Weitere Information